Thompsons, TX (77481)

1:03 PM CDT on September 16, 2014 (GMT -0500)
Commonwealth | Change Station
CLOSE
Current Station
Personal Weather Station
Location: Sugar Land, TX
Elevation: 67 ft
Nearby Weather Stations

Elev 67 ft 29.55 °N, 95.62 °W | Updated 12 minutes ago

Rain
Rain
84.7 °F
Feels Like 98 °F
N
0.0
Wind Variable Wind from NW

Today
High -- | Low -- °F
--% Chance of Precip.
Yesterday
High -- | Low -- °F
Precip. -- in
7:07 AM 7:26 PM
Last Quarter, 43% visible
Pressure 30.03 in
Visibility 7.0 miles
Clouds Mostly Cloudy 2800 ft
Mostly Cloudy 4100 ft
Overcast 9000 ft
Heat Index 98 °F
Dew Point 80 °F
Humidity 85%
Rainfall 0.00 in
Snow Depth Not available.
UV 3 out of 12
Pollen 8.70 out of 12
Ozone Good
PM2.5 Good
Flu Activity Not available.
METAR KAXH 161755Z AUTO 02007KT 7SM -RA BKN028 BKN041 OVC090 26/25 A3003 RMK AO2 P0009 60009 T02570245 10308 20252

More Conditions Fewer Conditions

Pressure 30.03 in
Visibility 7.0 miles
Clouds Mostly Cloudy 2800 ft
Mostly Cloudy 4100 ft
Overcast 9000 ft
Heat Index 98 °F
Dew Point 80 °F
Humidity 85%
Rainfall 0.00 in
Snow Depth Not available.
UV 3 out of 12
Pollen 8.70 out of 12
Ozone Good
PM2.5 Good
Flu Activity Not available.
METAR KAXH 161755Z AUTO 02007KT 7SM -RA BKN028 BKN041 OVC090 26/25 A3003 RMK AO2 P0009 60009 T02570245 10308 20252

More Conditions Fewer Conditions

10-Day Weather Forecast

Almanac

Astronomy

Sep. 16, 2014 Rise Set
Actual Time 7:07 AM CDT 7:26 PM CDT
Civil Twilight 6:43 AM CDT 7:50 PM CDT
Nautical Twilight 6:15 AM CDT 8:17 PM CDT
Astronomical Twilight 5:47 AM CDT 8:46 PM CDT
Moon 12:37 AM CDT 2:31 PM CDT
Length of Visible Light 13h 06m
Length of Day
12h 18m
Tomorrow will be 1m 45s shorter.
Last Quarter, 43% of the Moon is Illuminated
Today
Last Quarter
Sep 24
New
Oct 1
First Quarter
Oct 8
Full
Oct 15
Last Quarter

Today's Extremes

State Highs State Lows

Community

WunderPhotos

Upload Photos

1,753,848 photos uploaded!

Nearby

Air Quality

  Air Quality AQ Index Pollutant
Yesterday Moderate
PM2.5
Yesterday Good
OZONE
Current Good
PM2.5
Current Good
OZONE
Tuesday Good
OZONE
Tuesday Good
PM10
Wednesday Good
OZONE
Wednesday Good
PM10
Thursday Good
OZONE
Thursday Good
PM10
Friday Good
OZONE
Friday Good
PM10

Snow Depth

Station Depth Elevation
No new snow has been reported.

Earthquake Activity

City Distance Mag. Time & Date
No recent earthquake activity has been reported nearby.
Minimum magnitude displayed is 2.5.

Coastal Water Temperatures

Place Temperature
No Stations Reporting

Nearby Weather Stations